createdAt,value
2022-11-02T00:01:17.851Z,14.52
2022-11-02T00:03:45.803Z,14.52
2022-11-02T00:06:13.776Z,14.48
2022-11-02T00:08:41.985Z,14.49
2022-11-02T00:11:09.949Z,14.45
2022-11-02T00:13:37.884Z,14.44
2022-11-02T00:16:10.190Z,14.44
2022-11-02T00:18:39.001Z,14.40
2022-11-02T00:21:07.394Z,14.38
2022-11-02T00:23:35.640Z,14.39
2022-11-02T00:26:04.282Z,14.41
2022-11-02T00:28:32.489Z,14.43
2022-11-02T00:31:00.478Z,14.39
2022-11-02T00:33:29.854Z,14.34
2022-11-02T00:35:57.958Z,14.36
2022-11-02T00:38:25.918Z,14.34
2022-11-02T00:40:53.894Z,14.36
2022-11-02T00:43:21.763Z,14.38
2022-11-02T00:45:49.619Z,14.38
2022-11-02T00:48:17.602Z,14.42
2022-11-02T00:50:46.849Z,14.43
2022-11-02T00:53:14.737Z,14.46
2022-11-02T00:55:42.637Z,14.50
2022-11-02T00:58:10.549Z,14.53
2022-11-02T01:00:38.646Z,14.56
2022-11-02T01:03:06.571Z,14.57
2022-11-02T01:05:34.487Z,14.59
2022-11-02T01:08:04.110Z,14.63
2022-11-02T01:10:32.145Z,14.69
2022-11-02T01:13:00.083Z,14.70
2022-11-02T01:15:27.994Z,14.70
2022-11-02T01:17:55.990Z,14.68
2022-11-02T01:20:24.252Z,14.66
2022-11-02T01:22:52.220Z,14.70
2022-11-02T01:25:21.507Z,14.73
2022-11-02T01:27:49.421Z,14.76
2022-11-02T01:30:17.626Z,14.80
2022-11-02T01:32:45.734Z,14.81
2022-11-02T01:35:13.734Z,14.79
2022-11-02T01:37:41.552Z,14.76
2022-11-02T01:40:10.682Z,14.74
2022-11-02T01:42:40.483Z,14.73
2022-11-02T01:45:09.080Z,14.68
2022-11-02T01:47:39.749Z,14.67
2022-11-02T01:50:11.532Z,14.65
2022-11-02T01:52:41.469Z,14.65
2022-11-02T01:55:14.987Z,14.64
2022-11-02T01:57:49.366Z,14.65
2022-11-02T02:00:19.897Z,14.65
2022-11-02T02:02:53.053Z,14.65
2022-11-02T02:05:23.350Z,14.66
2022-11-02T02:07:52.438Z,14.64
2022-11-02T02:10:20.925Z,14.62
2022-11-02T02:12:51.487Z,14.62
2022-11-02T02:15:19.566Z,14.60
2022-11-02T02:17:54.139Z,14.57
2022-11-02T02:20:40.957Z,14.53
2022-11-02T02:23:54.713Z,14.48
2022-11-02T02:26:49.010Z,14.47
2022-11-02T02:29:23.211Z,14.46
2022-11-02T02:31:57.496Z,14.39
2022-11-02T02:34:30.346Z,14.42
2022-11-02T02:37:02.746Z,14.38
2022-11-02T02:39:37.841Z,14.39
2022-11-02T02:42:14.167Z,14.37
2022-11-02T02:44:48.225Z,14.38
2022-11-02T02:47:21.502Z,14.36
2022-11-02T02:49:56.686Z,14.36
2022-11-02T02:52:28.180Z,14.36
2022-11-02T02:55:00.254Z,14.35
2022-11-02T02:57:32.704Z,14.33
2022-11-02T03:00:02.172Z,14.32
2022-11-02T03:02:33.982Z,14.33
2022-11-02T03:05:02.083Z,14.37
2022-11-02T03:07:34.177Z,14.39
2022-11-02T03:10:11.590Z,14.43
2022-11-02T03:12:46.606Z,14.45
2022-11-02T03:15:22.342Z,14.47
2022-11-02T03:18:03.473Z,14.49
2022-11-02T03:20:40.856Z,14.52
2022-11-02T03:23:17.730Z,14.52
2022-11-02T03:25:54.581Z,14.53
2022-11-02T03:28:31.164Z,14.53
2022-11-02T03:31:07.968Z,14.55
2022-11-02T03:33:38.706Z,14.61
2022-11-02T03:36:10.719Z,14.59
2022-11-02T03:38:45.565Z,14.58
2022-11-02T03:41:14.767Z,14.58
2022-11-02T03:43:44.016Z,14.57
2022-11-02T03:46:15.710Z,14.57
2022-11-02T03:48:46.609Z,14.52
2022-11-02T03:51:19.244Z,14.51
2022-11-02T03:53:52.612Z,14.51
2022-11-02T03:56:27.114Z,14.47
2022-11-02T03:58:55.043Z,14.45
2022-11-02T04:01:25.957Z,14.43
2022-11-02T04:03:54.078Z,14.38
2022-11-02T04:06:23.525Z,14.38
2022-11-02T04:08:51.458Z,14.36
2022-11-02T04:11:36.999Z,14.32
2022-11-02T04:14:22.354Z,14.28
2022-11-02T04:17:11.820Z,14.26
2022-11-02T04:19:38.643Z,14.20
2022-11-02T04:22:23.778Z,14.17
2022-11-02T04:25:08.936Z,14.17
2022-11-02T04:27:37.310Z,14.16
2022-11-02T04:30:06.176Z,14.12
2022-11-02T04:32:58.271Z,14.09
2022-11-02T04:35:26.210Z,14.09
2022-11-02T04:38:11.468Z,14.09
2022-11-02T04:40:39.640Z,14.08
2022-11-02T04:43:07.654Z,14.03
2022-11-02T04:45:35.927Z,14.04
2022-11-02T04:48:07.345Z,14.03
2022-11-02T04:50:36.023Z,14.02
2022-11-02T04:53:07.151Z,14.01
2022-11-02T04:55:35.850Z,13.99
2022-11-02T04:58:04.335Z,13.96
2022-11-02T05:00:34.936Z,13.97
2022-11-02T05:03:04.690Z,13.95
2022-11-02T05:05:36.118Z,13.95
2022-11-02T05:08:04.365Z,13.94
2022-11-02T05:10:32.562Z,13.93
2022-11-02T05:13:01.129Z,13.89
2022-11-02T05:15:29.016Z,13.91
2022-11-02T05:17:57.273Z,13.91
2022-11-02T05:20:25.528Z,13.92
2022-11-02T05:22:54.824Z,13.91
2022-11-02T05:25:22.796Z,13.91
2022-11-02T05:27:50.737Z,13.92
2022-11-02T05:30:18.942Z,13.93
2022-11-02T05:32:46.838Z,13.95
2022-11-02T05:35:14.850Z,13.95
2022-11-02T05:37:43.928Z,13.95
2022-11-02T05:40:14.198Z,13.95
2022-11-02T05:42:42.199Z,13.95
2022-11-02T05:45:10.945Z,14.01
2022-11-02T05:47:38.874Z,14.00
2022-11-02T05:50:07.353Z,14.07
2022-11-02T05:52:36.387Z,14.07
2022-11-02T05:55:04.678Z,14.04
2022-11-02T05:57:33.949Z,14.05
2022-11-02T06:00:01.886Z,14.02
2022-11-02T06:02:29.764Z,14.03
2022-11-02T06:04:58.348Z,14.06
2022-11-02T06:07:26.388Z,14.04
2022-11-02T06:09:54.238Z,14.06
2022-11-02T06:12:22.292Z,14.04
2022-11-02T06:14:51.625Z,14.01
2022-11-02T06:17:19.426Z,14.00
2022-11-02T06:19:47.443Z,13.98
2022-11-02T06:22:15.461Z,13.94
2022-11-02T06:24:43.399Z,13.91
2022-11-02T06:27:11.298Z,13.89
2022-11-02T06:29:39.231Z,13.88
2022-11-02T06:32:08.628Z,13.81
2022-11-02T06:34:36.676Z,13.83
2022-11-02T06:37:04.642Z,13.80
2022-11-02T06:39:32.667Z,13.83
2022-11-02T06:42:00.644Z,13.78
2022-11-02T06:44:28.753Z,13.81
2022-11-02T06:46:56.722Z,13.81
2022-11-02T06:49:26.157Z,13.78
2022-11-02T06:51:54.406Z,13.79
2022-11-02T06:54:22.367Z,13.77
2022-11-02T06:56:50.370Z,13.78
2022-11-02T06:59:18.302Z,13.80
2022-11-02T07:01:46.599Z,13.73
2022-11-02T07:04:14.772Z,13.75
2022-11-02T07:06:44.070Z,13.78
2022-11-02T07:09:11.932Z,13.77
2022-11-02T07:11:39.758Z,13.73
2022-11-02T07:14:07.830Z,13.79
2022-11-02T07:16:35.713Z,13.80
2022-11-02T07:19:04.366Z,13.75
2022-11-02T07:21:32.333Z,13.74
2022-11-02T07:24:01.670Z,13.68
2022-11-02T07:26:29.759Z,13.74
2022-11-02T07:28:59.429Z,13.73
2022-11-02T07:31:27.487Z,13.73
2022-11-02T07:33:55.495Z,13.71
2022-11-02T07:36:23.297Z,13.75
2022-11-02T07:38:52.607Z,13.82
2022-11-02T07:41:23.311Z,13.87
2022-11-02T07:43:51.550Z,13.94
2022-11-02T07:46:19.715Z,14.03
2022-11-02T07:48:48.667Z,14.03
2022-11-02T07:51:17.055Z,14.05
2022-11-02T07:53:45.055Z,13.98
2022-11-02T07:56:13.122Z,14.01
2022-11-02T07:58:42.505Z,14.04
2022-11-02T08:01:10.377Z,14.06
2022-11-02T08:03:38.441Z,14.07
2022-11-02T08:06:07.199Z,14.09
2022-11-02T08:08:35.194Z,14.08
2022-11-02T08:11:08.428Z,14.10
2022-11-02T08:13:37.820Z,14.15
2022-11-02T08:16:07.723Z,14.16
2022-11-02T08:18:35.694Z,14.22
2022-11-02T08:21:04.339Z,14.22
2022-11-02T08:23:32.186Z,14.24
2022-11-02T08:26:01.212Z,14.30
2022-11-02T08:28:31.688Z,14.30
2022-11-02T08:30:59.897Z,14.32
2022-11-02T08:33:29.563Z,14.33
2022-11-02T08:36:08.314Z,14.27
2022-11-02T08:38:36.249Z,14.30
2022-11-02T08:41:04.595Z,14.34
2022-11-02T08:43:32.854Z,14.40
2022-11-02T08:46:14.744Z,14.41
2022-11-02T08:48:45.365Z,14.42
2022-11-02T08:51:13.429Z,14.43
2022-11-02T08:53:42.361Z,14.49
2022-11-02T08:56:11.659Z,14.53
2022-11-02T08:58:39.630Z,14.54
2022-11-02T09:01:07.609Z,14.55
2022-11-02T09:03:35.591Z,14.53
2022-11-02T09:06:05.335Z,14.50
2022-11-02T09:08:33.414Z,14.47
2022-11-02T09:11:02.803Z,14.56
2022-11-02T09:13:31.027Z,14.59
2022-11-02T09:16:00.545Z,14.58
2022-11-02T09:18:28.936Z,14.62
2022-11-02T09:20:57.165Z,14.65
2022-11-02T09:23:26.485Z,14.62
2022-11-02T09:25:54.773Z,14.61
2022-11-02T09:28:22.900Z,14.61
2022-11-02T09:30:50.991Z,14.56
2022-11-02T09:33:19.320Z,14.57
2022-11-02T09:35:49.361Z,14.62
2022-11-02T09:38:19.355Z,14.70
2022-11-02T09:40:56.034Z,14.73
2022-11-02T09:43:33.102Z,14.75
2022-11-02T09:46:06.230Z,14.79
2022-11-02T09:48:37.512Z,14.85
2022-11-02T09:51:09.988Z,14.88
2022-11-02T09:53:49.919Z,14.86
2022-11-02T09:56:21.185Z,14.88
2022-11-02T09:58:52.588Z,14.87
2022-11-02T10:01:46.424Z,14.86
2022-11-02T10:04:31.139Z,14.96
2022-11-02T10:07:08.119Z,15.04
2022-11-02T10:09:46.909Z,15.10
2022-11-02T10:12:21.460Z,15.23
2022-11-02T10:14:58.272Z,15.29
2022-11-02T10:17:28.399Z,15.37
2022-11-02T10:19:58.617Z,15.45
2022-11-02T10:22:30.031Z,15.49
2022-11-02T10:24:59.604Z,15.57
2022-11-02T10:27:33.339Z,15.67
2022-11-02T10:30:04.934Z,15.67
2022-11-02T10:32:34.236Z,15.73
2022-11-02T10:35:25.382Z,15.80
2022-11-02T10:38:13.514Z,15.85
2022-11-02T10:40:56.992Z,15.92
2022-11-02T10:43:52.146Z,16.00
2022-11-02T10:46:36.058Z,16.08
2022-11-02T10:49:12.330Z,16.10
2022-11-02T10:51:40.445Z,16.23
2022-11-02T10:54:15.085Z,16.33
2022-11-02T10:56:47.133Z,16.37
2022-11-02T10:59:17.668Z,16.38
2022-11-02T11:02:04.312Z,16.31
2022-11-02T11:04:33.518Z,16.24
2022-11-02T11:07:06.546Z,16.22
2022-11-02T11:09:42.895Z,16.27
2022-11-02T11:12:22.476Z,16.32
2022-11-02T11:20:36.694Z,16.11
2022-11-02T11:23:20.770Z,16.06
2022-11-02T11:25:56.733Z,16.08
2022-11-02T11:28:27.548Z,16.11
2022-11-02T11:31:15.463Z,16.03
2022-11-02T11:33:49.571Z,16.05
2022-11-02T11:36:28.221Z,16.04
2022-11-02T11:38:59.362Z,16.03
2022-11-02T11:41:27.775Z,16.05
2022-11-02T11:43:56.235Z,16.13
2022-11-02T11:46:40.492Z,16.07
2022-11-02T11:49:35.852Z,16.13
2022-11-02T11:52:18.681Z,16.14
2022-11-02T11:54:55.351Z,16.15
2022-11-02T11:57:28.375Z,16.22
2022-11-02T11:59:59.176Z,16.22
2022-11-02T12:02:30.250Z,16.19
2022-11-02T12:05:15.125Z,16.15
2022-11-02T12:08:02.655Z,16.17
2022-11-02T12:10:48.842Z,16.15
2022-11-02T12:13:32.046Z,16.14
2022-11-02T12:16:16.372Z,16.12
2022-11-02T12:19:14.296Z,16.10
2022-11-02T12:21:56.500Z,16.19
2022-11-02T12:24:56.227Z,16.24
2022-11-02T12:27:34.574Z,16.33
2022-11-02T12:30:15.079Z,16.40
2022-11-02T12:33:07.954Z,16.44
2022-11-02T12:36:01.814Z,16.48
2022-11-02T12:39:10.384Z,16.49
2022-11-02T12:45:00.556Z,16.47
2022-11-02T12:47:43.340Z,16.42
2022-11-02T12:50:38.088Z,16.38
2022-11-02T12:53:20.250Z,16.31
2022-11-02T12:55:53.756Z,16.39
2022-11-02T12:58:24.556Z,16.43
2022-11-02T13:00:58.515Z,16.46
2022-11-02T13:03:36.621Z,16.49
2022-11-02T13:06:10.931Z,16.52
2022-11-02T13:08:46.755Z,16.51
2022-11-02T13:11:21.089Z,16.52
2022-11-02T13:13:53.735Z,16.60
2022-11-02T13:16:29.409Z,16.57
2022-11-02T13:18:59.675Z,16.61
2022-11-02T13:21:36.515Z,16.58
2022-11-02T13:24:14.546Z,16.52
2022-11-02T13:26:45.350Z,16.49
2022-11-02T13:29:19.418Z,16.40
2022-11-02T13:31:51.779Z,16.35
2022-11-02T13:34:29.630Z,16.31
2022-11-02T13:36:57.746Z,16.22
2022-11-02T13:39:33.071Z,16.20
2022-11-02T13:42:18.814Z,16.16
2022-11-02T13:45:15.607Z,16.18
2022-11-02T13:48:15.550Z,16.20
2022-11-02T13:50:48.093Z,16.24
2022-11-02T13:53:20.963Z,16.26
2022-11-02T13:55:54.466Z,16.27
2022-11-02T13:58:27.394Z,16.26
2022-11-02T14:00:59.984Z,16.30
2022-11-02T14:03:32.830Z,16.27
2022-11-02T14:06:02.947Z,16.30
2022-11-02T14:08:37.133Z,16.26
2022-11-02T14:11:24.475Z,16.18
2022-11-02T14:14:28.131Z,16.12
2022-11-02T14:17:17.323Z,16.11
2022-11-02T14:19:56.497Z,16.18
2022-11-02T14:22:24.646Z,16.28
2022-11-02T14:25:08.475Z,16.34
2022-11-02T14:27:36.898Z,16.39
2022-11-02T14:30:27.013Z,16.41
2022-11-02T14:33:03.268Z,16.36
2022-11-02T14:35:41.197Z,16.27
2022-11-02T14:38:47.348Z,16.22
2022-11-02T14:41:36.782Z,16.19
2022-11-02T14:44:38.306Z,16.20
2022-11-02T14:47:10.298Z,16.22
2022-11-02T14:49:41.544Z,16.27
2022-11-02T14:52:23.971Z,16.28
2022-11-02T14:54:54.768Z,16.25
2022-11-02T14:57:26.049Z,16.28
2022-11-02T14:59:57.500Z,16.29
2022-11-02T15:02:31.302Z,16.34
2022-11-02T15:05:01.650Z,16.38
2022-11-02T15:07:35.983Z,16.36
2022-11-02T15:10:08.492Z,16.37
2022-11-02T15:12:38.966Z,16.34
2022-11-02T15:15:34.773Z,16.28
2022-11-02T15:18:24.007Z,16.19
2022-11-02T15:21:25.372Z,16.18
2022-11-02T15:24:02.957Z,16.17
2022-11-02T15:26:39.221Z,16.17
2022-11-02T15:29:17.747Z,16.16
2022-11-02T15:31:56.721Z,16.10
2022-11-02T15:34:35.174Z,16.06
2022-11-02T15:37:03.528Z,16.02
2022-11-02T15:39:32.372Z,15.98
2022-11-02T15:42:05.325Z,15.89
2022-11-02T15:45:14.295Z,15.81
2022-11-02T15:48:04.520Z,15.78
2022-11-02T15:50:46.075Z,15.74
2022-11-02T15:53:42.879Z,15.67
2022-11-02T15:56:26.579Z,15.66
2022-11-02T15:59:18.093Z,15.59
2022-11-02T16:01:46.176Z,15.56
2022-11-02T16:04:21.384Z,15.53
2022-11-02T16:06:50.946Z,15.49
2022-11-02T16:09:33.108Z,15.39
2022-11-02T16:12:12.261Z,15.37
2022-11-02T16:14:40.548Z,15.33
2022-11-02T16:17:20.401Z,15.24
2022-11-02T16:19:49.602Z,15.23
2022-11-02T16:22:26.255Z,15.19
2022-11-02T16:24:55.459Z,15.16
2022-11-02T16:27:24.255Z,15.14
2022-11-02T16:29:52.312Z,15.11
2022-11-02T16:32:20.390Z,15.06
2022-11-02T16:34:48.658Z,15.00
2022-11-02T16:37:19.373Z,14.94
2022-11-02T16:39:48.993Z,14.89
2022-11-02T16:42:20.243Z,14.82
2022-11-02T16:44:57.801Z,14.72
2022-11-02T16:47:38.971Z,14.69
2022-11-02T16:50:20.810Z,14.63
2022-11-02T16:52:56.067Z,14.64
2022-11-02T16:55:44.221Z,14.58
2022-11-02T16:58:19.301Z,14.56
2022-11-02T17:00:56.369Z,14.56
2022-11-02T17:03:27.286Z,14.59
2022-11-02T17:05:55.623Z,14.59
2022-11-02T17:08:32.045Z,14.58
2022-11-02T17:11:03.635Z,14.63
2022-11-02T17:13:34.225Z,14.64
2022-11-02T17:16:07.099Z,14.60
2022-11-02T17:18:35.018Z,14.59
2022-11-02T17:21:27.962Z,14.50
2022-11-02T17:23:57.332Z,14.55
2022-11-02T17:26:37.526Z,14.54
2022-11-02T17:29:32.253Z,14.50
2022-11-02T17:32:01.660Z,14.52
2022-11-02T17:34:31.674Z,14.50
2022-11-02T17:36:59.861Z,14.49
2022-11-02T17:39:27.913Z,14.45
2022-11-02T17:42:24.771Z,14.44
2022-11-02T17:44:52.750Z,14.36
2022-11-02T17:47:20.734Z,14.29
2022-11-02T17:49:48.830Z,14.30
2022-11-02T17:52:17.503Z,14.30
2022-11-02T17:54:45.504Z,14.27
2022-11-02T17:57:16.201Z,14.21
2022-11-02T17:59:44.294Z,14.17
2022-11-02T18:02:13.759Z,14.13
2022-11-02T18:07:09.896Z,14.07
2022-11-02T18:09:37.876Z,13.98
2022-11-02T18:12:06.117Z,13.94
2022-11-02T18:14:36.723Z,13.91
2022-11-02T18:17:04.770Z,13.86
2022-11-02T18:19:33.444Z,13.82
2022-11-02T18:22:01.621Z,13.80
2022-11-02T18:24:29.608Z,13.76
2022-11-02T18:26:57.509Z,13.74
2022-11-02T18:29:25.550Z,13.71
2022-11-02T18:31:55.103Z,13.64
2022-11-02T18:34:23.235Z,13.66
2022-11-02T18:36:51.243Z,13.67
2022-11-02T18:39:19.468Z,13.68
2022-11-02T18:41:47.921Z,13.67
2022-11-02T18:44:15.970Z,13.68
2022-11-02T18:46:44.236Z,13.69
2022-11-02T18:49:14.620Z,13.69
2022-11-02T18:51:43.735Z,13.65
2022-11-02T18:54:12.098Z,13.62
2022-11-02T18:56:40.081Z,13.60
2022-11-02T18:59:08.120Z,13.58
2022-11-02T19:01:36.239Z,13.58
2022-11-02T19:04:04.908Z,13.56
2022-11-02T19:06:52.970Z,13.54
2022-11-02T19:09:23.825Z,13.50
2022-11-02T19:11:56.917Z,13.47
2022-11-02T19:14:25.467Z,13.47
2022-11-02T19:16:53.444Z,13.43
2022-11-02T19:19:21.380Z,13.41
2022-11-02T19:21:50.818Z,13.40
2022-11-02T19:24:20.984Z,13.40
2022-11-02T19:26:49.380Z,13.40
2022-11-02T19:29:17.809Z,13.38
2022-11-02T19:31:47.904Z,13.35
2022-11-02T19:34:15.967Z,13.33
2022-11-02T19:36:44.119Z,13.32
2022-11-02T19:39:13.565Z,13.36
2022-11-02T19:41:41.583Z,13.38
2022-11-02T19:44:09.597Z,13.42
2022-11-02T19:46:37.631Z,13.43
2022-11-02T19:49:05.623Z,13.41
2022-11-02T19:51:33.706Z,13.42
2022-11-02T19:54:03.811Z,13.42
2022-11-02T19:56:35.087Z,13.44
2022-11-02T19:59:03.979Z,13.48
2022-11-02T20:01:34.180Z,13.47
2022-11-02T20:04:02.501Z,13.49
2022-11-02T20:06:34.161Z,13.46
2022-11-02T20:09:04.424Z,13.51
2022-11-02T20:11:36.053Z,13.48
2022-11-02T20:14:05.301Z,13.48
2022-11-02T20:16:33.377Z,13.50
2022-11-02T20:19:01.372Z,13.48
2022-11-02T20:21:34.578Z,13.52
2022-11-02T20:24:05.582Z,13.51
2022-11-02T20:26:37.432Z,13.48
2022-11-02T20:29:07.026Z,13.49
2022-11-02T20:31:37.770Z,13.48
2022-11-02T20:34:08.181Z,13.45
2022-11-02T20:36:36.293Z,13.44
2022-11-02T20:39:07.506Z,13.41
2022-11-02T20:41:37.512Z,13.36
2022-11-02T20:44:05.923Z,13.35
2022-11-02T20:46:39.657Z,13.32
2022-11-02T20:49:20.444Z,13.28
2022-11-02T20:51:49.609Z,13.21
2022-11-02T20:54:19.838Z,13.10
2022-11-02T20:56:49.925Z,13.07
2022-11-02T20:59:18.565Z,13.04
2022-11-02T21:01:47.386Z,13.04
2022-11-02T21:04:20.326Z,13.02
2022-11-02T21:06:49.721Z,13.01
2022-11-02T21:09:17.682Z,12.98
2022-11-02T21:12:03.280Z,12.98
2022-11-02T21:14:32.623Z,12.99
2022-11-02T21:17:02.079Z,12.99
2022-11-02T21:19:30.167Z,12.97
2022-11-02T21:22:00.025Z,12.98
2022-11-02T21:24:28.577Z,12.97
2022-11-02T21:26:56.777Z,12.95
2022-11-02T21:29:25.158Z,12.94
2022-11-02T21:31:54.441Z,12.93
2022-11-02T21:34:22.314Z,12.93
2022-11-02T21:36:50.215Z,12.95
2022-11-02T21:39:18.197Z,12.93
2022-11-02T21:41:46.096Z,12.90
2022-11-02T21:44:14.092Z,12.91
2022-11-02T21:46:42.125Z,12.87
2022-11-02T21:49:12.924Z,12.88
2022-11-02T21:51:40.785Z,12.88
2022-11-02T21:54:08.837Z,12.80
2022-11-02T21:56:37.080Z,12.84
2022-11-02T21:59:05.880Z,12.83
2022-11-02T22:01:47.099Z,12.87
2022-11-02T22:04:21.372Z,12.86
2022-11-02T22:06:49.376Z,12.84
2022-11-02T22:09:17.349Z,12.83
2022-11-02T22:11:45.484Z,12.79
2022-11-02T22:14:13.905Z,12.81
2022-11-02T22:16:43.422Z,12.83
2022-11-02T22:19:13.150Z,12.86
2022-11-02T22:21:44.988Z,12.94
2022-11-02T22:24:13.485Z,13.00
2022-11-02T22:26:41.965Z,13.02
2022-11-02T22:29:09.998Z,13.02
2022-11-02T22:31:39.622Z,13.03
2022-11-02T22:34:09.225Z,13.06
2022-11-02T22:36:38.550Z,13.09
2022-11-02T22:39:08.559Z,13.12
2022-11-02T22:41:37.870Z,13.12
2022-11-02T22:44:07.672Z,13.17
2022-11-02T22:46:37.805Z,13.20
2022-11-02T22:49:06.820Z,13.23
2022-11-02T22:51:36.899Z,13.25
2022-11-02T22:54:08.484Z,13.27
2022-11-02T22:56:36.988Z,13.29
2022-11-02T22:59:06.053Z,13.30
2022-11-02T23:01:36.103Z,13.28
2022-11-02T23:04:04.740Z,13.30
2022-11-02T23:06:33.165Z,13.30
2022-11-02T23:09:02.232Z,13.26
2022-11-02T23:11:33.649Z,13.28
2022-11-02T23:14:03.834Z,13.31
2022-11-02T23:16:34.434Z,13.31
2022-11-02T23:19:27.209Z,13.26
2022-11-02T23:22:14.936Z,13.19
2022-11-02T23:25:02.306Z,13.17
2022-11-02T23:27:32.409Z,13.11
2022-11-02T23:30:18.085Z,13.09
2022-11-02T23:32:46.264Z,13.07
2022-11-02T23:35:31.703Z,13.07
2022-11-02T23:38:04.455Z,13.06
2022-11-02T23:40:33.394Z,13.03
2022-11-02T23:43:03.196Z,13.04
2022-11-02T23:45:31.354Z,13.01
2022-11-02T23:48:00.723Z,13.01
2022-11-02T23:50:49.030Z,13.01
2022-11-02T23:53:36.119Z,13.02
2022-11-02T23:56:22.998Z,12.98
2022-11-02T23:59:06.701Z,12.99
